KYIP/YIP METAR and TAF weather

Enter ICAO airport designator
Station Type Date Time Source
KYIP METAR 2019/04/19 10:28 UTC NOAA

KYIP 191028Z 34010KT 7SM -RA SCT009 BKN048 OVC055 07/04 A2964 RMK AO2 P0003 T00720044


Station Type Date Time Source
KYIP Decoded METAR 2019/04/19 10:28 UTC NOAA

WILLOW RUN AIRPORT, MI, United States (KYIP) 42-14N 083-32W 215M
Apr 19, 2019 - 06:28 AM EDT / 2019.04.19 1028 UTC
Wind: from the NNW (340 degrees) at 12 MPH (10 KT):0
Visibility: 7 mile(s):0
Sky conditions: overcast
Weather: light rain
Precipitation last hour: 0.03 inches
Temperature: 45.0 F (7.2 C)
Dew Point: 39.9 F (4.4 C)
Relative Humidity: 82%
Pressure (altimeter): 29.64 in. Hg (1003 hPa)
ob: KYIP 191028Z 34010KT 7SM -RA SCT009 BKN048 OVC055 07/04 A2964 RMK AO2 P0003 T00720044
cycle: 10

Station Type Date Time Source
KYIP TAF 2019/04/19 06:22 UTC NOAA

TAF KYIP 190520Z 1906/2006 33009KT P6SM -RA OVC015
FM191000 35012KT 2SM RA BR OVC010
FM191300 01015G24KT 1 1/2SM -RA BR OVC010
FM191900 01020G28KT 3SM -RA BR OVC012

Example: see airport list